Time;durP1;ratioP1;P1;durP2;ratioP2;P2;SDS_P1;SDS_P2;PMS_P1;PMS_P2;Temp;Humidity;BMP_temperature;BMP_pressure;BME280_temperature;BME280_humidity;BME280_pressure;Samples;Min_cycle;Max_cycle;Signal;HPM_P1;HPM_P2
2022/01/09 00:01:48;;;;;;;3.13;0.90;;;5.20;91.30;;;;;;4951734;28;20204;-74
2022/01/09 00:04:13;;;;;;;0.80;0.73;;;5.20;91.50;;;;;;4951048;28;20224;-73
2022/01/09 00:06:39;;;;;;;1.10;1.00;;;5.20;91.60;;;;;;4954777;28;20198;-73
2022/01/09 00:09:05;;;;;;;1.23;0.80;;;5.20;91.80;;;;;;4950937;29;20270;-73
2022/01/09 00:11:30;;;;;;;0.90;0.80;;;5.20;92.00;;;;;;4960867;28;20191;-72
2022/01/09 00:13:57;;;;;;;1.07;0.80;;;5.20;92.10;;;;;;4956302;28;20208;-74
2022/01/09 00:16:24;;;;;;;3.53;0.80;;;5.10;92.40;;;;;;4950220;28;20191;-73
2022/01/09 00:18:50;;;;;;;0.97;0.80;;;5.20;92.60;;;;;;4957209;28;20930;-73
2022/01/09 00:21:18;;;;;;;1.50;0.70;;;5.10;92.70;;;;;;4954182;28;20790;-73
2022/01/09 00:23:45;;;;;;;0.80;0.70;;;5.10;93.00;;;;;;4952730;28;20498;-73
2022/01/09 00:26:11;;;;;;;1.23;1.00;;;5.10;93.20;;;;;;4951743;28;20451;-73
2022/01/09 00:28:37;;;;;;;0.77;0.60;;;5.10;93.20;;;;;;4950713;28;20500;-75
2022/01/09 00:31:03;;;;;;;0.80;0.77;;;5.10;93.50;;;;;;4956201;28;20971;-73
2022/01/09 00:33:28;;;;;;;0.87;0.50;;;5.00;93.70;;;;;;4957755;28;20542;-74
2022/01/09 00:35:54;;;;;;;1.00;0.67;;;4.90;94.00;;;;;;4958839;28;20427;-74
2022/01/09 00:38:20;;;;;;;0.83;0.73;;;4.90;94.20;;;;;;4951300;29;20603;-75
2022/01/09 00:40:46;;;;;;;0.70;0.60;;;4.80;94.60;;;;;;4958814;28;20191;-75
2022/01/09 00:43:12;;;;;;;1.13;0.70;;;4.90;94.70;;;;;;4952379;28;20483;-73
2022/01/09 00:45:39;;;;;;;0.93;0.83;;;4.90;94.80;;;;;;4949985;28;21301;-76
2022/01/09 00:48:06;;;;;;;1.00;0.60;;;4.90;94.90;;;;;;4952055;28;20412;-74
2022/01/09 00:50:33;;;;;;;1.00;0.70;;;4.90;94.90;;;;;;4955224;28;20499;-74
2022/01/09 00:52:59;;;;;;;0.93;0.60;;;4.90;95.10;;;;;;4951823;28;20423;-74
2022/01/09 00:55:25;;;;;;;1.43;0.97;;;4.80;95.30;;;;;;4953809;28;20467;-75
2022/01/09 00:57:51;;;;;;;0.90;0.70;;;4.80;95.30;;;;;;4951693;28;20418;-74
2022/01/09 01:00:17;;;;;;;0.70;0.67;;;4.90;95.20;;;;;;4951693;28;20442;-74
2022/01/09 01:02:43;;;;;;;1.97;0.70;;;4.90;95.00;;;;;;4953965;28;20276;-73
2022/01/09 01:05:09;;;;;;;1.10;0.70;;;4.90;95.10;;;;;;4957464;28;20443;-73
2022/01/09 01:07:35;;;;;;;0.80;0.70;;;4.90;95.20;;;;;;4957222;28;20502;-73
2022/01/09 01:10:01;;;;;;;1.20;0.80;;;4.90;95.10;;;;;;4955306;28;20937;-73
2022/01/09 01:12:29;;;;;;;0.90;0.60;;;4.90;95.00;;;;;;4958938;28;20434;-73
2022/01/09 01:14:56;;;;;;;0.60;0.60;;;4.90;95.00;;;;;;4955352;28;20506;-74
2022/01/09 01:17:23;;;;;;;0.83;0.63;;;5.00;94.90;;;;;;4959052;28;20471;-73
2022/01/09 01:19:49;;;;;;;1.00;0.67;;;5.00;94.90;;;;;;4968199;28;20435;-75
2022/01/09 01:22:15;;;;;;;1.57;0.50;;;5.00;95.00;;;;;;4963084;28;20431;-75
2022/01/09 01:24:42;;;;;;;0.50;0.50;;;5.00;95.00;;;;;;4956431;28;20246;-74
2022/01/09 01:27:08;;;;;;;0.80;0.57;;;5.00;95.10;;;;;;4965510;28;20838;-74
2022/01/09 01:29:35;;;;;;;0.60;0.60;;;5.00;95.00;;;;;;4964385;28;21016;-72
2022/01/09 01:32:00;;;;;;;0.70;0.60;;;5.00;95.10;;;;;;4961727;28;20497;-73
2022/01/09 01:34:26;;;;;;;1.30;0.80;;;5.00;95.10;;;;;;4956575;28;21016;-73
2022/01/09 01:36:52;;;;;;;0.60;0.47;;;5.00;95.20;;;;;;4954534;28;20180;-73
2022/01/09 01:39:17;;;;;;;0.57;0.57;;;5.00;95.20;;;;;;4959924;28;20564;-74
2022/01/09 01:41:43;;;;;;;0.60;0.50;;;5.10;95.20;;;;;;4956911;28;20191;-72
2022/01/09 01:44:11;;;;;;;0.60;0.40;;;5.10;95.10;;;;;;4960301;28;20277;-73
2022/01/09 01:46:37;;;;;;;0.67;0.50;;;5.10;95.00;;;;;;4954936;28;20462;-72
2022/01/09 01:49:04;;;;;;;0.70;0.70;;;5.20;95.00;;;;;;4962076;28;20474;-72
2022/01/09 01:51:30;;;;;;;0.60;0.50;;;5.20;94.70;;;;;;4954430;28;20411;-72
2022/01/09 01:53:57;;;;;;;1.00;0.67;;;5.30;94.70;;;;;;4946935;28;20924;-73
2022/01/09 01:56:23;;;;;;;0.67;0.50;;;5.30;94.60;;;;;;4952950;28;20923;-73
2022/01/09 01:58:50;;;;;;;0.50;0.50;;;5.30;94.40;;;;;;4953454;28;20423;-73
2022/01/09 02:01:17;;;;;;;0.70;0.50;;;5.30;94.30;;;;;;4954605;28;20735;-74
2022/01/09 02:03:43;;;;;;;0.60;0.57;;;5.30;94.30;;;;;;4954241;28;21042;-73
2022/01/09 02:06:11;;;;;;;0.80;0.70;;;5.30;94.30;;;;;;4953718;28;20502;-74
2022/01/09 02:08:36;;;;;;;0.60;0.50;;;5.30;94.00;;;;;;4955217;28;20510;-73
2022/01/09 02:11:02;;;;;;;0.60;0.50;;;5.40;93.90;;;;;;4960762;28;20546;-73
2022/01/09 02:13:28;;;;;;;0.50;0.40;;;5.40;93.70;;;;;;4962883;28;20187;-73
2022/01/09 02:15:58;;;;;;;0.60;0.50;;;5.40;93.70;;;;;;4956072;28;20482;-73
2022/01/09 02:18:24;;;;;;;0.77;0.50;;;5.40;93.60;;;;;;4956557;28;20423;-73
2022/01/09 02:20:52;;;;;;;0.60;0.50;;;5.40;93.50;;;;;;4954278;28;20487;-73
2022/01/09 02:23:18;;;;;;;0.50;0.50;;;5.40;93.50;;;;;;4954484;28;20416;-73
2022/01/09 02:25:46;;;;;;;0.93;0.57;;;5.40;93.50;;;;;;4954235;28;20451;-72
2022/01/09 02:28:14;;;;;;;1.80;0.60;;;5.40;93.50;;;;;;4960261;28;20977;-72
2022/01/09 02:30:41;;;;;;;0.80;0.60;;;5.40;93.50;;;;;;4958914;28;20426;-73
2022/01/09 02:33:09;;;;;;;0.50;0.50;;;5.40;93.50;;;;;;4962393;28;20865;-73
2022/01/09 02:35:36;;;;;;;0.50;0.50;;;5.40;93.40;;;;;;4953541;28;20451;-73
2022/01/09 02:38:04;;;;;;;0.90;0.50;;;5.40;93.40;;;;;;4953580;28;20452;-73
2022/01/09 02:40:30;;;;;;;1.13;0.50;;;5.40;93.20;;;;;;4953353;28;20468;-72
2022/01/09 02:42:55;;;;;;;0.60;0.60;;;5.40;93.10;;;;;;4953563;28;20432;-73
2022/01/09 02:45:23;;;;;;;1.53;0.50;;;5.40;93.20;;;;;;4962823;28;20443;-73
2022/01/09 02:47:50;;;;;;;1.00;0.53;;;5.40;93.30;;;;;;4953521;28;20420;-73
2022/01/09 02:52:53;;;;;;;0.60;0.50;;;5.30;93.20;;;;;;4960925;28;20435;-73
2022/01/09 02:55:20;;;;;;;0.50;0.40;;;5.30;93.20;;;;;;4955066;28;20498;-72
2022/01/09 02:57:58;;;;;;;0.60;0.50;;;5.20;93.20;;;;;;4953352;28;20453;-73
2022/01/09 03:00:32;;;;;;;0.70;0.50;;;5.20;93.30;;;;;;4958915;28;20419;-74
2022/01/09 03:02:58;;;;;;;0.87;0.50;;;5.20;93.30;;;;;;4948450;28;20845;-72
2022/01/09 03:05:25;;;;;;;0.60;0.60;;;5.20;93.30;;;;;;4964122;28;20442;-73
2022/01/09 03:07:51;;;;;;;1.87;0.60;;;5.20;93.30;;;;;;4953473;28;20431;-72
2022/01/09 03:10:18;;;;;;;0.80;0.60;;;5.20;93.30;;;;;;4958903;28;20475;-74
2022/01/09 03:12:45;;;;;;;0.53;0.50;;;5.20;93.30;;;;;;4953997;28;20203;-74
2022/01/09 03:15:12;;;;;;;0.80;0.53;;;5.20;93.30;;;;;;4953787;28;20477;-73
2022/01/09 03:17:39;;;;;;;2.83;0.60;;;5.20;93.40;;;;;;4953048;28;20859;-73
2022/01/09 03:20:08;;;;;;;0.60;0.50;;;5.30;93.40;;;;;;4954687;28;20432;-73
2022/01/09 03:22:34;;;;;;;0.60;0.50;;;5.30;93.20;;;;;;4953417;28;21014;-73
2022/01/09 03:24:59;;;;;;;2.23;0.60;;;5.30;93.00;;;;;;4952761;28;20450;-74
2022/01/09 03:27:25;;;;;;;0.90;0.60;;;5.30;93.00;;;;;;4959670;28;20196;-73
2022/01/09 03:29:51;;;;;;;1.53;0.60;;;5.30;93.00;;;;;;4957116;28;20214;-72
2022/01/09 03:32:16;;;;;;;0.63;0.60;;;5.40;92.90;;;;;;4960123;28;20187;-73
2022/01/09 03:34:42;;;;;;;0.60;0.50;;;5.40;93.00;;;;;;4954349;29;20290;-73
2022/01/09 03:37:08;;;;;;;0.70;0.50;;;5.40;93.10;;;;;;4955069;28;20681;-73
2022/01/09 03:39:34;;;;;;;0.60;0.60;;;5.40;93.30;;;;;;4960501;28;20690;-73
2022/01/09 03:42:00;;;;;;;1.20;0.60;;;5.40;93.50;;;;;;4953310;29;20184;-73
2022/01/09 03:44:27;;;;;;;0.60;0.60;;;5.30;93.60;;;;;;4960752;28;20465;-73
2022/01/09 03:46:54;;;;;;;1.33;0.67;;;5.30;93.80;;;;;;4957883;28;20435;-73
2022/01/09 03:49:20;;;;;;;1.80;0.80;;;5.30;94.00;;;;;;4957038;28;20468;-73
2022/01/09 03:51:50;;;;;;;1.00;0.60;;;5.20;94.00;;;;;;4952130;28;20431;-73
2022/01/09 03:54:16;;;;;;;0.70;0.60;;;5.20;94.00;;;;;;4954988;28;20451;-74
2022/01/09 03:56:42;;;;;;;0.70;0.60;;;5.20;93.80;;;;;;4960699;28;20422;-74
2022/01/09 03:59:07;;;;;;;0.97;0.70;;;5.20;93.80;;;;;;4954229;28;20877;-72
2022/01/09 04:01:33;;;;;;;0.63;0.57;;;5.20;93.70;;;;;;4962819;28;20196;-73
2022/01/09 04:03:59;;;;;;;0.70;0.50;;;5.20;93.70;;;;;;4952134;29;20211;-72
2022/01/09 04:06:25;;;;;;;0.60;0.50;;;5.30;93.70;;;;;;4960249;28;20427;-73
2022/01/09 04:08:54;;;;;;;0.90;0.63;;;5.30;93.60;;;;;;4951972;28;20588;-73
2022/01/09 04:11:27;;;;;;;1.20;0.90;;;5.20;93.80;;;;;;4961659;28;20725;-72
2022/01/09 04:13:54;;;;;;;0.90;0.60;;;5.20;94.00;;;;;;4965945;28;20446;-72
2022/01/09 04:16:20;;;;;;;1.07;0.83;;;5.20;94.20;;;;;;4951954;28;20868;-74
2022/01/09 04:18:45;;;;;;;0.53;0.50;;;5.20;94.30;;;;;;4951321;28;20435;-73
2022/01/09 04:21:11;;;;;;;0.50;0.50;;;5.20;94.50;;;;;;4952105;28;20196;-73
2022/01/09 04:23:37;;;;;;;0.93;0.70;;;5.20;94.60;;;;;;4950303;28;20198;-73
2022/01/09 04:26:03;;;;;;;0.60;0.50;;;5.20;94.70;;;;;;4956009;28;20184;-73
2022/01/09 04:28:28;;;;;;;0.90;0.70;;;5.20;94.70;;;;;;4953021;28;20547;-74
2022/01/09 04:30:54;;;;;;;0.50;0.40;;;5.20;94.70;;;;;;4952406;28;20191;-73
2022/01/09 04:33:20;;;;;;;0.57;0.53;;;5.20;94.80;;;;;;4954613;28;20191;-73
2022/01/09 04:35:46;;;;;;;0.60;0.50;;;5.20;94.80;;;;;;4951616;28;20203;-73
2022/01/09 04:38:12;;;;;;;0.70;0.60;;;5.20;94.70;;;;;;4950735;28;20198;-73
2022/01/09 04:40:37;;;;;;;1.27;0.50;;;5.20;94.90;;;;;;4951339;28;20207;-73
2022/01/09 04:43:06;;;;;;;1.07;0.60;;;5.20;95.10;;;;;;4956330;28;20434;-72
2022/01/09 04:45:32;;;;;;;0.90;0.60;;;5.10;95.20;;;;;;4951187;28;20210;-74
2022/01/09 04:48:02;;;;;;;0.87;0.67;;;5.10;95.40;;;;;;4957152;28;20427;-75
2022/01/09 04:50:30;;;;;;;0.57;0.53;;;5.10;95.80;;;;;;4951244;28;20463;-74
2022/01/09 04:53:04;;;;;;;0.80;0.60;;;5.00;95.40;;;;;;4951388;28;20416;-74
2022/01/09 04:55:38;;;;;;;0.60;0.50;;;4.90;95.80;;;;;;4954792;28;20458;-75
2022/01/09 04:58:04;;;;;;;0.70;0.50;;;4.80;96.10;;;;;;4950013;28;20458;-74
2022/01/09 05:00:30;;;;;;;0.60;0.50;;;4.80;96.30;;;;;;4960487;28;20430;-74
2022/01/09 05:02:56;;;;;;;0.50;0.50;;;4.80;96.40;;;;;;4951612;28;20434;-75
2022/01/09 05:05:23;;;;;;;0.60;0.43;;;4.70;96.10;;;;;;4951198;29;20443;-73
2022/01/09 05:07:49;;;;;;;0.50;0.40;;;4.50;95.80;;;;;;4954237;28;20212;-74
2022/01/09 05:10:15;;;;;;;0.80;0.50;;;4.40;95.80;;;;;;4951231;28;20494;-73
2022/01/09 05:12:41;;;;;;;0.50;0.50;;;4.40;96.10;;;;;;4951444;28;20184;-75
2022/01/09 05:15:08;;;;;;;1.10;0.73;;;4.40;96.30;;;;;;4951158;28;20722;-73
2022/01/09 05:17:34;;;;;;;0.50;0.40;;;4.30;96.20;;;;;;4951482;28;20989;-75
2022/01/09 05:20:01;;;;;;;1.13;0.40;;;4.30;96.30;;;;;;4949613;28;20880;-73
2022/01/09 05:22:30;;;;;;;0.60;0.40;;;4.20;96.30;;;;;;4951411;28;20469;-74
2022/01/09 05:25:01;;;;;;;0.50;0.50;;;4.20;96.20;;;;;;4954479;28;20482;-74
2022/01/09 05:27:28;;;;;;;0.50;0.50;;;4.10;95.90;;;;;;4958486;28;20430;-74
2022/01/09 05:29:54;;;;;;;0.50;0.40;;;4.10;95.90;;;;;;4955423;28;20455;-74
2022/01/09 05:32:20;;;;;;;0.50;0.40;;;4.10;95.70;;;;;;4964444;28;20636;-73
2022/01/09 05:34:46;;;;;;;0.70;0.50;;;4.10;95.80;;;;;;4957843;28;20935;-73
2022/01/09 05:37:12;;;;;;;0.80;0.60;;;4.00;95.80;;;;;;4953671;28;20655;-74
2022/01/09 05:39:38;;;;;;;0.60;0.40;;;4.00;95.80;;;;;;4960085;28;20463;-74
2022/01/09 05:42:07;;;;;;;0.50;0.40;;;4.00;95.80;;;;;;4953661;28;20947;-73
2022/01/09 05:44:33;;;;;;;0.50;0.43;;;4.00;96.10;;;;;;4954673;28;20534;-73
2022/01/09 05:47:00;;;;;;;0.50;0.40;;;3.90;96.00;;;;;;4950816;28;20430;-73
2022/01/09 05:49:26;;;;;;;0.50;0.40;;;3.80;96.20;;;;;;4950697;28;20493;-74
2022/01/09 05:51:52;;;;;;;0.50;0.47;;;3.80;96.40;;;;;;4952591;28;20184;-74
2022/01/09 05:54:18;;;;;;;0.50;0.40;;;3.80;96.60;;;;;;4954574;28;20746;-73
2022/01/09 05:56:43;;;;;;;0.43;0.43;;;3.70;96.60;;;;;;4955643;28;20437;-75
2022/01/09 05:59:09;;;;;;;0.50;0.40;;;3.70;96.70;;;;;;4953676;28;20770;-74
2022/01/09 06:01:35;;;;;;;0.60;0.50;;;3.70;97.00;;;;;;4956417;28;20533;-75
2022/01/09 06:04:01;;;;;;;1.13;0.60;;;3.70;97.10;;;;;;4959260;28;20560;-75
2022/01/09 06:06:27;;;;;;;0.50;0.50;;;3.60;97.30;;;;;;4954139;28;20477;-74
2022/01/09 06:08:53;;;;;;;0.60;0.50;;;3.60;97.30;;;;;;4947380;28;20503;-74
2022/01/09 06:11:19;;;;;;;4.73;0.73;;;3.60;97.50;;;;;;4960778;28;20194;-74
2022/01/09 06:13:44;;;;;;;1.73;0.80;;;3.50;97.50;;;;;;4954495;28;20204;-75
2022/01/09 06:16:10;;;;;;;1.57;0.70;;;3.50;97.50;;;;;;4954918;28;20459;-73
2022/01/09 06:18:36;;;;;;;0.60;0.50;;;3.50;97.40;;;;;;4961909;28;20735;-75
2022/01/09 06:21:02;;;;;;;1.37;0.70;;;3.50;97.50;;;;;;4956296;28;20423;-74
2022/01/09 06:23:29;;;;;;;0.93;0.70;;;3.50;97.50;;;;;;4955608;28;20229;-73
2022/01/09 06:25:55;;;;;;;2.00;0.75;;;3.60;97.60;;;;;;4956846;28;20206;-75
2022/01/09 06:28:21;;;;;;;2.10;0.97;;;3.60;97.60;;;;;;4958644;28;20223;-75
2022/01/09 06:30:47;;;;;;;3.90;0.77;;;3.60;97.50;;;;;;4954538;28;20897;-74
2022/01/09 06:33:13;;;;;;;1.20;0.60;;;3.60;97.40;;;;;;4957729;28;20860;-75
2022/01/09 06:35:40;;;;;;;0.88;0.57;;;3.60;97.40;;;;;;4955140;28;20518;-74
2022/01/09 06:38:07;;;;;;;2.70;0.83;;;3.60;97.40;;;;;;4954015;29;20550;-74
2022/01/09 06:40:34;;;;;;;1.10;0.70;;;3.60;97.40;;;;;;4955883;28;20440;-74
2022/01/09 06:43:00;;;;;;;2.83;0.65;;;3.60;97.40;;;;;;4959671;28;20432;-74
2022/01/09 06:45:27;;;;;;;1.30;0.73;;;3.60;97.40;;;;;;4964122;28;20558;-75
2022/01/09 06:47:54;;;;;;;2.03;0.80;;;3.60;97.30;;;;;;4953376;28;20602;-74
2022/01/09 06:50:21;;;;;;;1.57;0.67;;;3.60;97.40;;;;;;4954013;28;20223;-74
2022/01/09 06:52:47;;;;;;;1.17;0.70;;;3.60;97.40;;;;;;4953856;28;20424;-74
2022/01/09 06:55:13;;;;;;;1.50;0.80;;;3.60;97.60;;;;;;4956760;28;20517;-75
2022/01/09 06:57:39;;;;;;;3.90;1.57;;;3.60;97.60;;;;;;4956387;28;20434;-73
2022/01/09 07:00:08;;;;;;;0.80;0.50;;;3.60;97.60;;;;;;4956508;28;20851;-74
2022/01/09 07:02:34;;;;;;;2.10;0.60;;;3.50;97.70;;;;;;4953812;28;20471;-74
2022/01/09 07:04:59;;;;;;;1.13;0.80;;;3.50;97.70;;;;;;4956266;28;20230;-74
2022/01/09 07:07:25;;;;;;;4.30;0.90;;;3.40;97.80;;;;;;4955568;28;20215;-75
2022/01/09 07:09:51;;;;;;;0.50;0.43;;;3.40;97.90;;;;;;4954860;28;20292;-75
2022/01/09 07:12:19;;;;;;;1.10;0.70;;;3.40;97.90;;;;;;4961209;28;20239;-74
2022/01/09 07:14:45;;;;;;;1.45;0.55;;;3.30;98.00;;;;;;4959502;28;20679;-75
2022/01/09 07:17:11;;;;;;;2.47;0.73;;;3.30;98.00;;;;;;4953252;28;20184;-74
2022/01/09 07:19:37;;;;;;;1.73;0.80;;;3.30;98.10;;;;;;4952127;28;20654;-74
2022/01/09 07:22:04;;;;;;;1.50;0.83;;;3.30;98.10;;;;;;4953050;28;20562;-73
2022/01/09 07:24:30;;;;;;;0.65;0.63;;;3.30;98.10;;;;;;4952821;29;20970;-74
2022/01/09 07:26:56;;;;;;;1.23;0.97;;;3.30;98.10;;;;;;4959398;28;20219;-75
2022/01/09 07:29:22;;;;;;;1.90;1.00;;;3.30;98.10;;;;;;4952293;29;20564;-74
2022/01/09 07:31:47;;;;;;;1.00;0.90;;;3.40;98.00;;;;;;4953163;28;20227;-75
2022/01/09 07:34:13;;;;;;;0.90;0.83;;;3.40;97.90;;;;;;4955837;28;20208;-74
2022/01/09 07:36:39;;;;;;;1.17;0.90;;;3.40;97.80;;;;;;4952807;28;20196;-74
2022/01/09 07:39:05;;;;;;;3.87;1.03;;;3.40;97.70;;;;;;4950520;28;20431;-76
2022/01/09 07:41:30;;;;;;;2.80;1.17;;;3.50;97.70;;;;;;4952907;28;20285;-75
2022/01/09 07:43:56;;;;;;;3.00;1.50;;;3.50;97.30;;;;;;4958867;28;20577;-74
2022/01/09 07:46:22;;;;;;;5.90;2.13;;;3.50;97.30;;;;;;4955253;29;20927;-76
2022/01/09 07:48:48;;;;;;;5.30;1.40;;;3.50;96.90;;;;;;4962470;28;20220;-76
2022/01/09 07:51:14;;;;;;;3.33;1.50;;;3.60;96.70;;;;;;4963551;28;20286;-74
2022/01/09 07:53:39;;;;;;;6.40;1.67;;;3.60;96.50;;;;;;4951913;28;20188;-75
2022/01/09 07:56:05;;;;;;;7.70;1.87;;;3.60;95.80;;;;;;4954480;28;20443;-74
2022/01/09 07:58:31;;;;;;;3.23;1.70;;;3.70;95.40;;;;;;4956179;28;20960;-73
2022/01/09 08:00:58;;;;;;;2.73;1.67;;;3.70;95.30;;;;;;4952839;28;20218;-74
2022/01/09 08:03:24;;;;;;;3.90;1.60;;;3.80;94.80;;;;;;4952619;28;20427;-75
2022/01/09 08:05:49;;;;;;;4.33;1.83;;;3.90;94.90;;;;;;4953229;28;20411;-74
2022/01/09 08:08:15;;;;;;;6.47;2.03;;;3.90;94.70;;;;;;4962259;28;20196;-74
2022/01/09 08:10:41;;;;;;;2.97;1.50;;;3.90;94.20;;;;;;4959303;28;20635;-74
2022/01/09 08:13:07;;;;;;;2.43;1.57;;;4.00;93.20;;;;;;4952343;28;20439;-74
2022/01/09 08:15:32;;;;;;;4.83;1.77;;;4.00;93.10;;;;;;4952672;28;20565;-74
2022/01/09 08:17:58;;;;;;;2.93;1.90;;;4.10;92.90;;;;;;4951999;28;20632;-74
2022/01/09 08:20:24;;;;;;;7.00;2.47;;;4.10;92.40;;;;;;4954475;28;20187;-74
2022/01/09 08:22:50;;;;;;;4.13;1.47;;;4.10;92.20;;;;;;4951858;28;20219;-73
2022/01/09 08:25:17;;;;;;;5.60;2.10;;;4.10;91.60;;;;;;4959419;28;20219;-74
2022/01/09 08:27:44;;;;;;;6.57;1.50;;;4.10;91.50;;;;;;4959336;28;20190;-74
2022/01/09 08:30:12;;;;;;;5.40;2.07;;;4.10;91.20;;;;;;4957177;28;20793;-74
2022/01/09 08:32:39;;;;;;;7.50;2.10;;;4.10;90.60;;;;;;4953819;28;20435;-74
2022/01/09 08:35:05;;;;;;;4.53;1.80;;;4.10;90.50;;;;;;4956418;28;20443;-74
2022/01/09 08:37:32;;;;;;;6.47;1.93;;;4.10;90.50;;;;;;4957971;28;20432;-74
2022/01/09 08:39:58;;;;;;;5.60;1.57;;;4.10;90.60;;;;;;4958922;28;20945;-74
2022/01/09 08:42:24;;;;;;;4.13;1.70;;;4.20;90.40;;;;;;4951438;28;20431;-74
2022/01/09 08:44:49;;;;;;;12.67;2.23;;;4.20;89.70;;;;;;4953165;28;20447;-75
2022/01/09 08:47:15;;;;;;;8.73;2.30;;;4.20;89.30;;;;;;4957613;28;20474;-75
2022/01/09 08:49:41;;;;;;;3.40;2.00;;;4.30;88.40;;;;;;4964352;28;20272;-74
2022/01/09 08:52:08;;;;;;;3.93;1.77;;;4.30;88.40;;;;;;4957638;28;20985;-73
2022/01/09 08:54:34;;;;;;;8.23;1.73;;;4.30;88.60;;;;;;4955539;28;20235;-75
2022/01/09 08:57:00;;;;;;;4.90;1.60;;;4.30;88.60;;;;;;4957060;28;20435;-74
2022/01/09 08:59:26;;;;;;;3.50;1.50;;;4.40;88.60;;;;;;4954602;28;20849;-75
2022/01/09 09:01:52;;;;;;;5.50;1.40;;;4.30;86.30;;;;;;4959338;28;20524;-75
2022/01/09 09:04:18;;;;;;;6.93;1.87;;;4.40;86.50;;;;;;4955530;28;20216;-75
2022/01/09 09:06:44;;;;;;;3.70;1.60;;;4.50;85.90;;;;;;4962457;28;20433;-75
2022/01/09 09:09:11;;;;;;;5.47;1.43;;;4.60;85.30;;;;;;4957669;28;20557;-74
2022/01/09 09:11:37;;;;;;;3.40;1.93;;;4.70;84.70;;;;;;4956402;28;20479;-76
2022/01/09 09:14:04;;;;;;;8.83;2.40;;;4.70;83.40;;;;;;4951800;28;20561;-74
2022/01/09 09:16:31;;;;;;;6.90;1.80;;;4.70;84.10;;;;;;4951887;28;20423;-75
2022/01/09 09:18:57;;;;;;;5.90;2.23;;;4.70;84.90;;;;;;4955278;28;20431;-74
2022/01/09 09:21:23;;;;;;;3.03;1.43;;;4.80;86.00;;;;;;4955222;28;20435;-75
2022/01/09 09:23:49;;;;;;;7.70;1.70;;;4.80;86.80;;;;;;4959934;28;20447;-74
2022/01/09 09:26:16;;;;;;;6.83;2.33;;;4.80;86.50;;;;;;4960868;28;20481;-75
2022/01/09 09:28:43;;;;;;;8.93;1.83;;;4.70;86.60;;;;;;4959332;28;20524;-75
2022/01/09 09:31:09;;;;;;;8.70;2.00;;;4.80;87.10;;;;;;4955339;28;20474;-75
2022/01/09 09:33:35;;;;;;;5.70;1.80;;;4.90;87.00;;;;;;4966999;28;20435;-75
2022/01/09 09:36:02;;;;;;;5.20;2.17;;;4.90;86.60;;;;;;4957539;29;20455;-75
2022/01/09 09:38:28;;;;;;;4.87;2.03;;;4.90;86.80;;;;;;4957754;28;20458;-74
2022/01/09 09:40:55;;;;;;;5.67;1.83;;;5.10;86.80;;;;;;4962031;28;20514;-76
2022/01/09 09:43:20;;;;;;;6.67;2.07;;;5.10;85.70;;;;;;4961416;28;20454;-76
2022/01/09 09:45:46;;;;;;;4.90;2.00;;;5.10;85.70;;;;;;4958443;28;20945;-74
2022/01/09 09:48:12;;;;;;;6.93;2.27;;;5.10;86.80;;;;;;4958205;28;20215;-76
2022/01/09 09:50:38;;;;;;;7.57;2.47;;;4.90;87.80;;;;;;4956016;29;20235;-76
2022/01/09 09:53:05;;;;;;;5.00;2.10;;;4.80;89.60;;;;;;4956397;28;20232;-76
2022/01/09 09:55:31;;;;;;;8.67;2.53;;;4.50;90.90;;;;;;4954100;28;20465;-76
2022/01/09 09:57:57;;;;;;;13.43;1.90;;;4.30;91.60;;;;;;4956512;28;20431;-76
2022/01/09 10:00:24;;;;;;;5.70;2.57;;;4.20;92.20;;;;;;4954982;29;20431;-76
2022/01/09 10:02:54;;;;;;;7.33;2.13;;;4.20;92.50;;;;;;4956812;29;20430;-75
2022/01/09 10:05:26;;;;;;;7.10;3.03;;;4.30;92.40;;;;;;4956311;29;20953;-75
2022/01/09 10:07:54;;;;;;;5.47;2.00;;;4.40;92.30;;;;;;4962113;28;20450;-76
2022/01/09 10:10:28;;;;;;;7.70;2.90;;;4.40;91.50;;;;;;4954035;29;20475;-76
2022/01/09 10:13:05;;;;;;;5.20;2.20;;;4.50;91.00;;;;;;4961817;28;20510;-74
2022/01/09 10:15:41;;;;;;;8.20;2.17;;;4.70;90.90;;;;;;4955522;29;20455;-75
2022/01/09 10:18:08;;;;;;;5.13;2.03;;;4.80;90.70;;;;;;4952190;28;20443;-76
2022/01/09 10:20:34;;;;;;;7.40;2.37;;;5.00;90.20;;;;;;4958177;28;20432;-74
2022/01/09 10:22:59;;;;;;;7.17;2.60;;;5.00;89.30;;;;;;4961857;28;20419;-76
2022/01/09 10:25:32;;;;;;;5.10;1.80;;;4.90;89.00;;;;;;4955778;28;20277;-75
2022/01/09 10:28:16;;;;;;;7.50;2.20;;;4.90;90.10;;;;;;4948219;28;20232;-76
2022/01/09 10:30:48;;;;;;;2.87;1.60;;;4.90;90.40;;;;;;4955010;28;20478;-76
2022/01/09 10:33:17;;;;;;;6.40;1.97;;;4.90;90.50;;;;;;4955611;29;20945;-76
2022/01/09 10:35:45;;;;;;;10.47;2.13;;;4.80;90.50;;;;;;4954578;28;20447;-75
2022/01/09 10:38:27;;;;;;;5.57;2.00;;;4.80;90.90;;;;;;4954743;28;20427;-73
2022/01/09 10:40:58;;;;;;;8.73;2.00;;;5.00;91.00;;;;;;4959800;28;20567;-74
2022/01/09 10:43:35;;;;;;;3.67;2.17;;;5.20;90.70;;;;;;4957370;28;20444;-74
2022/01/09 10:46:01;;;;;;;9.20;1.90;;;5.30;90.70;;;;;;4947083;29;20423;-76
2022/01/09 10:48:37;;;;;;;4.27;1.87;;;5.30;90.10;;;;;;4954412;28;20506;-75
2022/01/09 10:51:07;;;;;;;5.10;2.20;;;5.20;90.00;;;;;;4954883;28;21269;-76
2022/01/09 10:53:38;;;;;;;4.43;1.93;;;5.20;90.50;;;;;;4961575;28;20506;-75
2022/01/09 10:56:04;;;;;;;8.10;2.40;;;5.00;91.00;;;;;;4960821;28;20447;-75
2022/01/09 10:58:34;;;;;;;7.13;2.10;;;5.00;91.50;;;;;;4957406;28;20423;-75
2022/01/09 11:01:23;;;;;;;3.60;1.93;;;4.90;91.80;;;;;;4968042;28;20188;-76
2022/01/09 11:03:55;;;;;;;9.43;2.30;;;4.80;91.90;;;;;;4955480;28;20451;-75
2022/01/09 11:06:22;;;;;;;5.20;1.97;;;4.80;92.30;;;;;;4955226;29;20450;-76
2022/01/09 11:08:50;;;;;;;16.87;2.77;;;4.90;92.50;;;;;;4958065;28;20503;-76
2022/01/09 11:13:54;;;;;;;7.97;2.70;;;5.40;91.10;;;;;;4959466;28;20441;-77
2022/01/09 11:16:32;;;;;;;6.50;2.13;;;5.40;90.20;;;;;;4955401;28;20431;-76
2022/01/09 11:19:01;;;;;;;10.10;2.23;;;5.30;89.90;;;;;;4953922;29;20847;-76
2022/01/09 11:21:28;;;;;;;4.97;2.10;;;5.40;89.70;;;;;;4955217;28;20424;-77
2022/01/09 11:24:22;;;;;;;5.13;1.90;;;5.50;88.40;;;;;;4955497;28;20542;-78
2022/01/09 11:27:09;;;;;;;4.43;1.50;;;5.50;87.60;;;;;;4958913;28;20653;-76
2022/01/09 11:30:13;;;;;;;7.10;1.83;;;5.50;87.60;;;;;;4953177;29;20610;-76
2022/01/09 11:32:44;;;;;;;4.17;2.23;;;5.60;87.70;;;;;;4958188;28;20445;-77
2022/01/09 11:35:10;;;;;;;4.63;1.53;;;5.60;86.20;;;;;;4955382;28;20450;-77
2022/01/09 11:37:49;;;;;;;7.33;1.93;;;5.70;86.80;;;;;;4961435;28;20431;-77
2022/01/09 11:40:44;;;;;;;4.90;1.53;;;5.60;87.10;;;;;;4960890;29;20262;-76
2022/01/09 11:43:14;;;;;;;8.10;2.37;;;5.60;86.60;;;;;;4948220;28;21170;-76
2022/01/09 11:45:47;;;;;;;2.83;1.50;;;5.60;86.50;;;;;;4955633;28;20451;-77
2022/01/09 11:48:19;;;;;;;5.33;1.90;;;5.80;86.50;;;;;;4957357;28;20444;-76
2022/01/09 11:51:06;;;;;;;6.20;2.10;;;5.80;85.50;;;;;;4954651;28;20537;-76
2022/01/09 11:53:56;;;;;;;5.50;1.97;;;5.90;84.70;;;;;;4955296;28;20427;-77
2022/01/09 11:56:41;;;;;;;3.57;1.60;;;5.90;85.00;;;;;;4953694;29;20428;-77
2022/01/09 11:59:19;;;;;;;7.43;2.13;;;5.90;84.70;;;;;;4948910;28;20522;-76
2022/01/09 12:01:50;;;;;;;3.63;1.87;;;6.00;84.70;;;;;;4953910;28;20451;-77
2022/01/09 12:04:49;;;;;;;4.10;1.73;;;6.00;84.70;;;;;;4955719;28;20459;-76
2022/01/09 12:07:39;;;;;;;8.43;2.30;;;6.10;84.90;;;;;;4947468;28;20527;-74
2022/01/09 12:10:17;;;;;;;6.90;1.60;;;6.10;83.80;;;;;;4946208;29;20518;-73
2022/01/09 12:12:42;;;;;;;2.93;1.40;;;6.00;83.80;;;;;;4955493;28;20428;-76
2022/01/09 12:15:09;;;;;;;6.73;1.97;;;5.80;83.80;;;;;;4954726;29;20498;-76
2022/01/09 12:17:40;;;;;;;7.63;2.30;;;5.80;84.30;;;;;;4956553;28;20191;-78
2022/01/09 12:20:11;;;;;;;4.17;1.57;;;5.90;84.70;;;;;;4957121;28;20495;-76
2022/01/09 12:23:24;;;;;;;2.17;1.60;;;5.90;83.60;;;;;;4956317;28;20435;-76
2022/01/09 12:25:25;;;;;;;4.00;1.80;;;6.00;83.60;;;;;;4956518;28;20503;-76
2022/01/09 12:28:18;;;;;;;6.83;1.60;;;5.90;82.50;;;;;;4960268;28;20426;-76
2022/01/09 12:30:48;;;;;;;3.40;1.60;;;5.80;83.60;;;;;;4954976;28;20212;-76
2022/01/09 12:33:27;;;;;;;5.53;1.63;;;5.80;83.00;;;;;;4955849;28;20431;-75
2022/01/09 12:35:58;;;;;;;16.17;5.30;;;5.80;84.10;;;;;;4953122;28;20423;-75
2022/01/09 12:38:28;;;;;;;4.87;1.77;;;6.00;84.60;;;;;;4954743;28;20423;-76
2022/01/09 12:41:03;;;;;;;8.10;1.63;;;6.00;83.40;;;;;;4952258;28;20427;-75
2022/01/09 12:43:30;;;;;;;3.60;1.50;;;6.00;83.80;;;;;;4949494;28;20438;-75
2022/01/09 12:45:57;;;;;;;3.23;1.50;;;5.90;83.00;;;;;;4951526;28;20427;-75
2022/01/09 12:48:28;;;;;;;4.60;2.70;;;6.00;82.80;;;;;;4953459;28;20439;-74
2022/01/09 12:50:56;;;;;;;6.00;2.03;;;6.00;82.70;;;;;;4958175;28;20475;-75
2022/01/09 12:53:29;;;;;;;6.23;1.63;;;6.10;82.80;;;;;;4956679;28;20476;-74
2022/01/09 12:56:00;;;;;;;3.30;1.77;;;6.20;81.90;;;;;;4954746;28;20899;-76
2022/01/09 12:58:27;;;;;;;4.40;1.53;;;6.30;81.50;;;;;;4953496;28;20486;-75
2022/01/09 13:00:53;;;;;;;5.33;2.23;;;6.20;80.50;;;;;;4954365;28;20431;-75
2022/01/09 13:03:22;;;;;;;3.80;1.80;;;6.10;80.80;;;;;;4955458;29;20522;-74
2022/01/09 13:05:59;;;;;;;8.97;2.50;;;6.10;81.10;;;;;;4957187;28;20473;-76
2022/01/09 13:08:26;;;;;;;3.10;1.80;;;6.00;80.80;;;;;;4957789;28;20427;-76